createdAt,value
2019-04-07T00:00:39.516Z,58.73
2019-04-07T00:03:08.008Z,56.20
2019-04-07T00:05:36.226Z,56.27
2019-04-07T00:08:04.517Z,58.03
2019-04-07T00:10:32.014Z,57.57
2019-04-07T00:12:59.831Z,60.83
2019-04-07T00:15:27.771Z,57.43
2019-04-07T00:17:56.141Z,59.07
2019-04-07T00:20:23.749Z,60.57
2019-04-07T00:22:51.535Z,63.00
2019-04-07T00:25:19.629Z,60.77
2019-04-07T00:27:47.362Z,58.90
2019-04-07T00:30:15.533Z,61.27
2019-04-07T00:32:43.088Z,61.37
2019-04-07T00:35:22.117Z,64.60
2019-04-07T00:37:40.538Z,67.70
2019-04-07T00:40:08.642Z,66.27
2019-04-07T00:42:37.887Z,68.97
2019-04-07T00:45:06.120Z,69.70
2019-04-07T00:47:35.229Z,70.17
2019-04-07T00:50:03.041Z,68.23
2019-04-07T00:52:30.583Z,70.23
2019-04-07T00:54:58.836Z,70.20
2019-04-07T00:57:26.458Z,69.77
2019-04-07T00:59:54.240Z,71.10
2019-04-07T01:02:22.330Z,70.07
2019-04-07T01:04:49.819Z,73.73
2019-04-07T01:07:17.924Z,74.63
2019-04-07T01:09:45.410Z,73.47
2019-04-07T01:12:12.940Z,77.07
2019-04-07T01:14:41.631Z,81.20
2019-04-07T01:17:09.211Z,79.50
2019-04-07T01:19:36.798Z,82.50
2019-04-07T01:22:04.343Z,85.93
2019-04-07T01:24:36.442Z,83.67
2019-04-07T01:27:04.214Z,90.63
2019-04-07T01:29:32.121Z,89.80
2019-04-07T01:31:59.609Z,86.93
2019-04-07T01:34:27.323Z,88.70
2019-04-07T01:36:55.639Z,89.80
2019-04-07T01:39:23.294Z,87.13
2019-04-07T01:41:58.556Z,88.13
2019-04-07T01:44:37.326Z,92.10
2019-04-07T01:47:18.886Z,139.52
2019-04-07T01:50:02.176Z,103.63
2019-04-07T01:52:39.247Z,99.07
2019-04-07T01:55:35.722Z,93.77
2019-04-07T01:58:26.396Z,95.40
2019-04-07T02:01:16.125Z,98.97
2019-04-07T02:04:05.937Z,98.00
2019-04-07T02:06:53.743Z,100.57
2019-04-07T02:09:41.110Z,101.67
2019-04-07T02:12:18.101Z,99.37
2019-04-07T02:15:05.294Z,102.63
2019-04-07T02:18:10.535Z,104.23
2019-04-07T02:20:58.972Z,109.63
2019-04-07T02:23:58.078Z,107.03
2019-04-07T02:26:54.355Z,105.90
2019-04-07T02:29:47.072Z,108.40
2019-04-07T02:32:44.083Z,111.77
2019-04-07T02:35:39.943Z,113.50
2019-04-07T02:38:27.724Z,105.20
2019-04-07T02:41:15.932Z,109.43
2019-04-07T02:44:02.832Z,110.37
2019-04-07T02:46:59.395Z,116.10
2019-04-07T02:49:48.637Z,117.83
2019-04-07T02:52:36.937Z,114.23
2019-04-07T02:55:40.774Z,120.13
2019-04-07T02:58:40.908Z,116.33
2019-04-07T03:01:22.613Z,111.43
2019-04-07T03:04:08.264Z,107.97
2019-04-07T03:07:07.627Z,111.23
2019-04-07T03:09:45.477Z,104.13
2019-04-07T03:12:33.226Z,102.07
2019-04-07T03:15:09.562Z,102.73
2019-04-07T03:18:14.863Z,109.87
2019-04-07T03:21:11.682Z,102.70
2019-04-07T03:24:01.429Z,101.73
2019-04-07T03:27:00.817Z,106.07
2019-04-07T03:29:47.140Z,108.97
2019-04-07T03:32:46.715Z,100.20
2019-04-07T03:35:32.368Z,97.27
2019-04-07T03:38:20.726Z,96.77
2019-04-07T03:41:19.955Z,99.67
2019-04-07T03:44:07.722Z,100.53
2019-04-07T03:46:55.772Z,98.93
2019-04-07T03:49:32.317Z,99.67
2019-04-07T03:52:19.450Z,96.57
2019-04-07T03:54:57.116Z,95.20
2019-04-07T03:57:48.030Z,96.27
2019-04-07T04:00:53.248Z,92.33
2019-04-07T04:03:32.250Z,86.23
2019-04-07T04:06:10.599Z,88.27
2019-04-07T04:08:45.782Z,81.87
2019-04-07T04:11:22.178Z,91.70
2019-04-07T04:14:09.654Z,91.23
2019-04-07T04:16:44.415Z,89.30
2019-04-07T04:19:12.984Z,90.63
2019-04-07T04:21:40.545Z,95.73
2019-04-07T04:24:08.656Z,92.97
2019-04-07T04:26:36.219Z,96.30
2019-04-07T04:29:04.094Z,92.73
2019-04-07T04:31:31.883Z,86.67
2019-04-07T04:33:59.342Z,90.30
2019-04-07T04:36:27.266Z,90.00
2019-04-07T04:38:55.573Z,97.13
2019-04-07T04:41:23.360Z,100.53
2019-04-07T04:43:50.942Z,96.97
2019-04-07T04:46:18.758Z,98.97
2019-04-07T04:48:47.375Z,99.77
2019-04-07T04:51:15.117Z,98.77
2019-04-07T04:53:42.645Z,97.03
2019-04-07T04:56:10.252Z,88.00
2019-04-07T04:58:38.200Z,92.30
2019-04-07T05:01:06.338Z,90.97
2019-04-07T05:03:34.821Z,88.57
2019-04-07T05:06:02.466Z,85.40
2019-04-07T05:08:30.046Z,86.50
2019-04-07T05:10:57.883Z,81.47
2019-04-07T05:13:25.990Z,82.00
2019-04-07T05:15:53.747Z,87.00
2019-04-07T05:18:22.274Z,82.50
2019-04-07T05:20:50.032Z,87.93
2019-04-07T05:23:18.152Z,79.50
2019-04-07T05:25:45.693Z,82.23
2019-04-07T05:28:13.225Z,82.87
2019-04-07T05:30:41.495Z,82.40
2019-04-07T05:33:09.984Z,86.97
2019-04-07T05:35:37.966Z,81.10
2019-04-07T05:38:06.748Z,82.70
2019-04-07T05:40:35.527Z,84.50
2019-04-07T05:43:03.150Z,82.87
2019-04-07T05:45:31.535Z,84.63
2019-04-07T05:48:00.040Z,84.67
2019-04-07T05:50:28.828Z,82.80
2019-04-07T05:52:56.786Z,79.97
2019-04-07T05:55:24.663Z,84.43
2019-04-07T05:57:52.181Z,80.87
2019-04-07T06:00:20.642Z,81.97
2019-04-07T06:02:48.257Z,85.30
2019-04-07T06:05:17.298Z,79.80
2019-04-07T06:07:45.830Z,78.80
2019-04-07T06:10:13.559Z,80.20
2019-04-07T06:12:43.904Z,78.53
2019-04-07T06:15:10.836Z,77.40
2019-04-07T06:17:39.099Z,73.27
2019-04-07T06:20:06.854Z,76.43
2019-04-07T06:22:34.968Z,73.10
2019-04-07T06:25:04.219Z,72.80
2019-04-07T06:27:32.557Z,71.73
2019-04-07T06:30:00.825Z,73.33
2019-04-07T06:32:28.457Z,73.80
2019-04-07T06:34:55.973Z,73.37
2019-04-07T06:37:28.807Z,72.80
2019-04-07T06:39:59.348Z,71.47
2019-04-07T06:42:29.669Z,74.10
2019-04-07T06:45:00.343Z,73.07
2019-04-07T06:47:42.212Z,72.40
2019-04-07T06:50:47.709Z,72.27
2019-04-07T06:53:33.812Z,72.27
2019-04-07T06:56:16.434Z,68.67
2019-04-07T06:58:54.762Z,64.63
2019-04-07T07:01:44.923Z,66.17
2019-04-07T07:04:32.290Z,70.80
2019-04-07T07:07:21.555Z,69.03
2019-04-07T07:16:12.457Z,62.23
2019-04-07T07:19:27.431Z,62.67
2019-04-07T07:22:16.560Z,61.00
2019-04-07T07:24:46.779Z,61.63
2019-04-07T07:27:13.702Z,61.17
2019-04-07T07:29:45.425Z,63.50
2019-04-07T07:32:11.578Z,58.13
2019-04-07T07:34:41.950Z,55.23
2019-04-07T07:37:08.574Z,63.13
2019-04-07T07:39:36.234Z,61.70
2019-04-07T07:42:04.016Z,63.20
2019-04-07T07:44:35.912Z,61.20
2019-04-07T07:47:01.567Z,62.78
2019-04-07T07:49:32.472Z,64.35
2019-04-07T07:51:59.251Z,63.00
2019-04-07T07:54:28.227Z,63.83
2019-04-07T07:56:57.046Z,58.50
2019-04-07T07:59:25.022Z,61.92
2019-04-07T08:01:52.807Z,61.75
2019-04-07T08:04:24.953Z,64.80
2019-04-07T08:06:51.251Z,60.23
2019-04-07T08:09:23.685Z,61.08
2019-04-07T08:11:48.933Z,59.63
2019-04-07T08:14:18.218Z,59.13
2019-04-07T08:16:46.143Z,61.20
2019-04-07T08:19:13.898Z,56.10
2019-04-07T08:21:44.329Z,55.90
2019-04-07T08:24:11.316Z,59.18
2019-04-07T08:26:40.594Z,59.40
2019-04-07T08:29:08.838Z,58.95
2019-04-07T08:31:38.419Z,56.98
2019-04-07T08:34:07.808Z,59.13
2019-04-07T08:36:35.355Z,59.65
2019-04-07T08:39:06.058Z,59.83
2019-04-07T08:41:34.753Z,59.18
2019-04-07T08:44:02.878Z,59.23
2019-04-07T08:46:35.210Z,57.10
2019-04-07T08:49:01.598Z,54.35
2019-04-07T08:51:32.364Z,59.58
2019-04-07T08:53:59.801Z,60.20
2019-04-07T08:56:27.790Z,58.33
2019-04-07T08:58:55.709Z,61.53
2019-04-07T09:01:23.807Z,59.98
2019-04-07T09:03:51.907Z,57.50
2019-04-07T09:06:20.812Z,57.93
2019-04-07T09:08:49.802Z,59.88
2019-04-07T09:11:21.656Z,60.43
2019-04-07T09:13:52.613Z,57.43
2019-04-07T09:16:52.858Z,59.58
2019-04-07T09:19:36.756Z,58.05
2019-04-07T09:22:23.209Z,59.18
2019-04-07T09:25:10.884Z,55.12
2019-04-07T09:27:46.044Z,58.00
2019-04-07T09:30:30.789Z,58.33
2019-04-07T09:33:18.112Z,56.37
2019-04-07T09:36:06.929Z,57.60
2019-04-07T09:39:00.035Z,61.15
2019-04-07T09:41:42.843Z,56.98
2019-04-07T09:44:37.699Z,60.15
2019-04-07T09:47:45.192Z,61.53
2019-04-07T09:50:43.529Z,59.90
2019-04-07T09:53:31.697Z,60.83
2019-04-07T09:56:12.955Z,57.25
2019-04-07T09:58:58.694Z,61.25
2019-04-07T10:01:44.683Z,60.90
2019-04-07T10:04:42.556Z,60.60
2019-04-07T10:07:44.924Z,69.12
2019-04-07T10:10:32.004Z,68.80
2019-04-07T10:13:14.631Z,69.05
2019-04-07T10:15:57.425Z,67.62
2019-04-07T10:18:59.323Z,62.48
2019-04-07T10:21:46.429Z,60.28
2019-04-07T10:24:40.432Z,60.67
2019-04-07T10:27:31.388Z,62.45
2019-04-07T10:30:18.900Z,57.98
2019-04-07T10:33:19.095Z,56.10
2019-04-07T10:36:09.234Z,58.48
2019-04-07T10:38:59.283Z,59.20
2019-04-07T10:41:53.166Z,57.00
2019-04-07T10:44:38.811Z,58.25
2019-04-07T10:47:25.868Z,58.75
2019-04-07T10:50:11.620Z,57.78
2019-04-07T10:53:04.966Z,55.63
2019-04-07T10:56:01.201Z,57.27
2019-04-07T10:58:47.219Z,57.00
2019-04-07T11:01:36.612Z,57.78
2019-04-07T11:04:27.332Z,57.48
2019-04-07T11:07:18.594Z,57.93
2019-04-07T11:09:59.031Z,57.45
2019-04-07T11:12:51.385Z,57.40
2019-04-07T11:15:41.978Z,52.15
2019-04-07T11:18:30.479Z,58.73
2019-04-07T11:21:16.610Z,56.83
2019-04-07T11:24:02.280Z,56.02
2019-04-07T11:26:48.493Z,58.87
2019-04-07T11:29:37.753Z,59.55
2019-04-07T11:32:12.187Z,58.50
2019-04-07T11:35:11.224Z,55.17
2019-04-07T11:37:45.838Z,52.75
2019-04-07T11:40:47.697Z,56.83
2019-04-07T11:43:29.541Z,54.30
2019-04-07T11:46:04.349Z,54.77
2019-04-07T11:48:55.995Z,57.25
2019-04-07T11:51:31.429Z,51.90
2019-04-07T11:54:19.789Z,50.73
2019-04-07T11:57:07.140Z,52.65
2019-04-07T11:59:54.252Z,47.00
2019-04-07T12:02:41.534Z,49.85
2019-04-07T12:05:37.762Z,46.65
2019-04-07T12:08:25.060Z,46.08
2019-04-07T12:11:13.099Z,46.08
2019-04-07T12:13:45.676Z,53.45
2019-04-07T12:16:35.101Z,53.63
2019-04-07T12:19:24.971Z,48.35
2019-04-07T12:21:59.832Z,49.65
2019-04-07T12:24:49.129Z,51.70
2019-04-07T12:27:48.081Z,50.63
2019-04-07T12:30:35.868Z,53.38
2019-04-07T12:33:23.330Z,53.08
2019-04-07T12:36:10.118Z,53.70
2019-04-07T12:38:56.299Z,47.65
2019-04-07T12:41:50.020Z,47.70
2019-04-07T12:44:26.410Z,49.67
2019-04-07T12:47:25.695Z,46.37
2019-04-07T12:50:15.468Z,41.73
2019-04-07T12:53:09.798Z,46.48
2019-04-07T12:56:02.298Z,44.70
2019-04-07T12:58:50.693Z,42.70
2019-04-07T13:01:37.152Z,46.70
2019-04-07T13:04:34.287Z,47.83
2019-04-07T13:07:24.252Z,48.50
2019-04-07T13:10:10.492Z,47.40
2019-04-07T13:12:59.204Z,46.20
2019-04-07T13:15:50.976Z,48.28
2019-04-07T13:18:38.960Z,49.45
2019-04-07T13:21:25.048Z,48.50
2019-04-07T13:24:12.952Z,50.58
2019-04-07T13:26:46.956Z,47.20
2019-04-07T13:29:33.427Z,50.28
2019-04-07T13:32:19.204Z,53.20
2019-04-07T13:35:05.647Z,51.42
2019-04-07T13:37:43.787Z,50.78
2019-04-07T13:40:48.948Z,52.35
2019-04-07T13:43:37.020Z,48.48
2019-04-07T13:46:28.601Z,48.63
2019-04-07T13:49:14.954Z,50.85
2019-04-07T13:52:02.495Z,51.73
2019-04-07T13:54:49.355Z,50.43
2019-04-07T13:57:39.373Z,52.30
2019-04-07T14:00:35.766Z,49.80
2019-04-07T14:03:13.461Z,49.30
2019-04-07T14:06:06.916Z,51.63
2019-04-07T14:09:05.603Z,48.58
2019-04-07T14:11:58.809Z,52.53
2019-04-07T14:14:41.003Z,48.02
2019-04-07T14:17:28.415Z,49.10
2019-04-07T14:20:14.940Z,46.85
2019-04-07T14:23:06.156Z,46.73
2019-04-07T14:25:49.097Z,48.63
2019-04-07T14:28:39.007Z,47.60
2019-04-07T14:31:29.376Z,48.02
2019-04-07T14:34:19.229Z,46.73
2019-04-07T14:37:09.719Z,47.15
2019-04-07T14:39:53.421Z,45.23
2019-04-07T14:42:38.552Z,42.80
2019-04-07T14:45:18.230Z,44.35
2019-04-07T14:48:08.636Z,42.50
2019-04-07T14:51:02.239Z,42.00
2019-04-07T14:53:48.429Z,40.92
2019-04-07T14:56:37.579Z,42.93
2019-04-07T14:59:26.466Z,42.55
2019-04-07T15:01:53.700Z,45.25
2019-04-07T15:04:23.423Z,55.50
2019-04-07T15:07:06.309Z,57.58
2019-04-07T15:09:52.373Z,52.88
2019-04-07T15:12:36.077Z,29.48
2019-04-07T15:15:07.535Z,40.20
2019-04-07T15:17:36.676Z,48.42
2019-04-07T15:20:04.712Z,47.53
2019-04-07T15:22:32.329Z,38.98
2019-04-07T15:25:00.185Z,35.92
2019-04-07T15:27:28.332Z,35.48
2019-04-07T15:29:56.681Z,39.50
2019-04-07T15:32:26.590Z,31.12
2019-04-07T15:34:54.644Z,28.70
2019-04-07T15:37:24.716Z,24.20
2019-04-07T15:39:51.793Z,23.27
2019-04-07T15:42:33.050Z,22.82
2019-04-07T15:44:49.286Z,24.25
2019-04-07T15:47:16.955Z,21.90
2019-04-07T15:49:46.863Z,23.52
2019-04-07T15:52:14.513Z,25.80
2019-04-07T15:54:45.707Z,23.20
2019-04-07T15:57:16.201Z,22.87
2019-04-07T15:59:45.000Z,25.27
2019-04-07T16:02:13.363Z,25.25
2019-04-07T16:04:41.807Z,25.68
2019-04-07T16:07:10.201Z,27.25
2019-04-07T16:09:47.888Z,23.22
2019-04-07T16:12:08.022Z,21.23
2019-04-07T16:14:36.358Z,23.45
2019-04-07T16:17:06.364Z,20.23
2019-04-07T16:19:40.349Z,22.30
2019-04-07T16:22:04.307Z,25.52
2019-04-07T16:24:34.695Z,30.50
2019-04-07T16:27:05.404Z,24.92
2019-04-07T16:29:31.998Z,25.82
2019-04-07T16:32:00.039Z,26.75
2019-04-07T16:34:28.365Z,26.85
2019-04-07T16:36:58.232Z,25.33
2019-04-07T16:39:26.597Z,26.17
2019-04-07T16:41:55.454Z,25.68
2019-04-07T16:44:24.435Z,24.30
2019-04-07T16:46:54.923Z,24.37
2019-04-07T16:49:21.673Z,25.60
2019-04-07T16:51:49.388Z,28.20
2019-04-07T16:54:17.101Z,27.30
2019-04-07T16:56:45.502Z,26.97
2019-04-07T16:59:13.493Z,28.05
2019-04-07T17:01:41.138Z,28.60
2019-04-07T17:04:09.465Z,33.92
2019-04-07T17:06:37.907Z,32.70
2019-04-07T17:09:13.235Z,35.05
2019-04-07T17:11:40.892Z,36.67
2019-04-07T17:14:09.144Z,39.33
2019-04-07T17:16:36.748Z,39.85
2019-04-07T17:19:05.132Z,37.33
2019-04-07T17:21:33.095Z,43.48
2019-04-07T17:24:01.346Z,43.55
2019-04-07T17:26:29.618Z,46.50
2019-04-07T17:28:58.283Z,47.25
2019-04-07T17:31:28.073Z,47.53
2019-04-07T17:33:56.386Z,52.10
2019-04-07T17:36:25.038Z,54.77
2019-04-07T17:39:09.829Z,56.85
2019-04-07T17:41:37.505Z,60.80
2019-04-07T17:44:33.966Z,61.73
2019-04-07T17:47:21.142Z,64.00
2019-04-07T17:50:07.063Z,67.10
2019-04-07T17:52:59.912Z,73.07
2019-04-07T17:55:47.896Z,76.37
2019-04-07T17:58:36.770Z,78.47
2019-04-07T18:01:23.407Z,77.97
2019-04-07T18:04:02.674Z,79.47
2019-04-07T18:06:40.586Z,81.53
2019-04-07T18:09:24.788Z,84.47
2019-04-07T18:12:10.436Z,89.10
2019-04-07T18:15:03.627Z,88.25
2019-04-07T18:17:46.116Z,91.05
2019-04-07T18:20:31.580Z,92.57
2019-04-07T18:23:18.650Z,94.72
2019-04-07T18:25:53.115Z,96.53
2019-04-07T18:28:37.082Z,97.43
2019-04-07T18:31:27.440Z,97.20
2019-04-07T18:34:18.476Z,99.77
2019-04-07T18:37:08.451Z,97.92
2019-04-07T18:40:07.379Z,98.20
2019-04-07T18:42:56.481Z,101.55
2019-04-07T18:45:48.324Z,102.07
2019-04-07T18:48:32.427Z,101.18
2019-04-07T18:51:16.096Z,105.40
2019-04-07T18:54:12.179Z,109.22
2019-04-07T18:57:02.315Z,105.65
2019-04-07T19:00:03.057Z,104.97
2019-04-07T19:02:50.612Z,107.47
2019-04-07T19:05:40.698Z,112.10
2019-04-07T19:08:37.576Z,112.47
2019-04-07T19:11:19.236Z,111.57
2019-04-07T19:14:30.569Z,107.30
2019-04-07T19:16:49.275Z,109.35
2019-04-07T19:19:33.936Z,110.65
2019-04-07T19:22:21.144Z,102.65
2019-04-07T19:25:12.996Z,102.10
2019-04-07T19:28:09.419Z,105.75
2019-04-07T19:30:55.306Z,105.13
2019-04-07T19:33:49.420Z,105.43
2019-04-07T19:36:42.791Z,109.03
2019-04-07T19:39:26.354Z,109.63
2019-04-07T19:42:27.317Z,112.12
2019-04-07T19:45:15.502Z,104.70
2019-04-07T19:48:08.725Z,106.07
2019-04-07T19:50:55.645Z,100.23
2019-04-07T19:53:51.480Z,102.20
2019-04-07T19:56:39.327Z,100.47
2019-04-07T19:59:26.627Z,97.17
2019-04-07T20:02:08.020Z,97.07
2019-04-07T20:04:53.430Z,97.43
2019-04-07T20:07:46.190Z,98.35
2019-04-07T20:10:33.828Z,98.35
2019-04-07T20:13:34.430Z,98.57
2019-04-07T20:16:28.999Z,98.00
2019-04-07T20:19:16.649Z,104.40
2019-04-07T20:22:03.073Z,102.57
2019-04-07T20:24:48.801Z,102.90
2019-04-07T20:27:47.379Z,104.83
2019-04-07T20:30:34.114Z,105.70
2019-04-07T20:33:22.721Z,110.67
2019-04-07T20:36:08.755Z,103.27
2019-04-07T20:39:06.050Z,107.77
2019-04-07T20:41:53.487Z,109.17
2019-04-07T20:44:40.658Z,110.63
2019-04-07T20:47:42.435Z,105.80
2019-04-07T20:50:31.498Z,108.57
2019-04-07T21:08:40.291Z,110.37
2019-04-07T21:11:15.208Z,113.20
2019-04-07T21:17:29.384Z,110.67
2019-04-07T21:20:27.758Z,112.10
2019-04-07T21:23:17.273Z,111.93
2019-04-07T21:26:15.484Z,114.72
2019-04-07T21:28:58.954Z,118.30
2019-04-07T21:31:46.730Z,112.93
2019-04-07T21:34:20.771Z,116.00
2019-04-07T21:37:13.295Z,117.87
2019-04-07T21:40:00.086Z,120.33
2019-04-07T21:42:45.825Z,122.30
2019-04-07T21:45:50.080Z,121.10
2019-04-07T21:48:32.155Z,122.77
2019-04-07T21:51:21.797Z,126.60
2019-04-07T21:54:04.066Z,126.03
2019-04-07T21:56:48.391Z,124.43
2019-04-07T21:59:32.082Z,127.57
2019-04-07T22:02:22.467Z,123.87
2019-04-07T22:05:19.803Z,126.42
2019-04-07T22:08:17.717Z,125.70
2019-04-07T22:10:45.241Z,128.50
2019-04-07T22:13:13.139Z,127.77
2019-04-07T22:15:47.021Z,127.13
2019-04-07T22:18:11.150Z,130.77
2019-04-07T22:20:39.265Z,127.57
2019-04-07T22:23:09.507Z,131.33
2019-04-07T22:25:50.486Z,129.03
2019-04-07T22:28:18.737Z,132.30
2019-04-07T22:30:47.485Z,132.00
2019-04-07T22:33:15.821Z,134.40
2019-04-07T22:35:44.466Z,131.13
2019-04-07T22:38:14.963Z,136.67
2019-04-07T22:40:43.614Z,136.30
2019-04-07T22:43:11.561Z,143.17
2019-04-07T22:45:39.344Z,140.53
2019-04-07T22:48:08.366Z,142.53
2019-04-07T22:50:37.632Z,146.27
2019-04-07T22:53:05.393Z,143.60
2019-04-07T22:55:34.235Z,141.77
2019-04-07T22:58:03.324Z,140.80
2019-04-07T23:00:31.170Z,138.23
2019-04-07T23:02:59.494Z,143.97
2019-04-07T23:05:27.693Z,143.83
2019-04-07T23:07:56.470Z,143.80
2019-04-07T23:10:23.994Z,144.00
2019-04-07T23:12:51.586Z,143.40
2019-04-07T23:15:19.318Z,149.10
2019-04-07T23:17:47.249Z,146.83
2019-04-07T23:20:15.168Z,143.27
2019-04-07T23:23:02.729Z,147.17
2019-04-07T23:25:30.485Z,148.23
2019-04-07T23:28:34.754Z,150.07
2019-04-07T23:31:03.292Z,150.10
2019-04-07T23:37:08.879Z,148.30
2019-04-07T23:39:39.787Z,148.97
2019-04-07T23:42:07.335Z,145.83
2019-04-07T23:44:35.252Z,154.80
2019-04-07T23:50:36.062Z,149.73
2019-04-07T23:56:29.937Z,153.17
